Time;durP1;ratioP1;P1;durP2;ratioP2;P2;SDS_P1;SDS_P2;PMS_P1;PMS_P2;Temp;Humidity;BMP_temperature;BMP_pressure;BME280_temperature;BME280_humidity;BME280_pressure;Samples;Min_cycle;Max_cycle;Signal;HPM_P1;HPM_P2
2022/03/02 00:00:52;;;;;;;80.00;27.17;;;-3273.80;55.70;;;;;;5100349;28;19908;-88
2022/03/02 00:03:17;;;;;;;90.97;29.10;;;-3273.80;55.60;;;;;;5105796;28;20032;-88
2022/03/02 00:05:43;;;;;;;;;;;-3273.70;55.80;;;;;;5125450;27;20377;-89
2022/03/02 00:08:08;;;;;;;78.50;26.93;;;-3273.70;56.00;;;;;;5101925;28;19929;-86
2022/03/02 00:10:34;;;;;;;;;;;-3273.70;55.80;;;;;;5121870;27;20038;-88
2022/03/02 00:12:59;;;;;;;82.27;28.17;;;-3273.70;56.00;;;;;;5104412;28;19950;-89
2022/03/02 00:15:25;;;;;;;;;;;-3273.60;55.90;;;;;;5120052;28;20088;-87
2022/03/02 00:17:51;;;;;;;88.73;27.40;;;-3273.60;56.10;;;;;;5107035;28;19907;-89
2022/03/02 00:20:18;;;;;;;83.33;29.20;;;-3273.50;56.00;;;;;;5110738;28;20020;-88
2022/03/02 00:22:43;;;;;;;108.23;30.67;;;-3273.50;56.30;;;;;;5104457;28;20028;-87
2022/03/02 00:25:09;;;;;;;;;;;-3273.50;56.50;;;;;;5122758;28;20027;-87
2022/03/02 00:27:38;;;;;;;83.73;29.83;;;-3273.50;56.80;;;;;;5108677;28;19935;-88
2022/03/02 00:30:08;;;;;;;104.03;31.73;;;-3273.50;56.60;;;;;;5101979;28;20026;-87
2022/03/02 00:32:33;;;;;;;103.77;36.60;;;-3273.40;56.80;;;;;;5106191;28;20039;-87
2022/03/02 00:34:59;;;;;;;;;;;-3273.40;57.00;;;;;;5126780;28;20024;-89
2022/03/02 00:37:24;;;;;;;105.43;36.33;;;-3273.40;57.20;;;;;;5105342;28;20360;-87
2022/03/02 00:39:50;;;;;;;;;;;-3273.40;56.90;;;;;;5123508;28;20031;-88
2022/03/02 00:42:19;;;;;;;109.93;35.13;;;-3273.30;57.10;;;;;;5100928;28;19908;-87
2022/03/02 00:44:44;;;;;;;114.23;36.50;;;-3273.30;56.90;;;;;;5121510;28;20395;-86
2022/03/02 00:47:10;;;;;;;;;;;-3273.20;57.10;;;;;;5116012;28;20083;-88
2022/03/02 00:49:35;;;;;;;94.63;32.77;;;-3273.20;57.40;;;;;;5102192;28;20003;-87
2022/03/02 00:52:02;;;;;;;;;;;-3273.20;57.20;;;;;;5103079;28;20107;-88
2022/03/02 00:54:28;;;;;;;98.22;32.13;;;-3273.20;57.40;;;;;;5116006;28;19938;-87
2022/03/02 00:56:54;;;;;;;103.72;32.15;;;-3273.20;57.20;;;;;;5123212;27;20376;-87
2022/03/02 00:59:19;;;;;;;;;;;-3273.10;57.40;;;;;;5133784;27;20047;-89
2022/03/02 01:01:45;;;;;;;79.37;29.40;;;-3273.10;57.60;;;;;;5100085;28;19908;-87
2022/03/02 01:04:30;;;;;;;86.28;31.92;;;-3273.10;57.40;;;;;;5139128;27;20051;-88
2022/03/02 01:06:56;;;;;;;90.37;29.77;;;-3273.10;57.70;;;;;;5103511;28;20024;-87
2022/03/02 01:09:21;;;;;;;;;;;-3273.10;57.70;;;;;;5123993;27;20539;-88
2022/03/02 01:11:47;;;;;;;81.77;28.63;;;-3273.00;57.90;;;;;;5099380;28;20046;-89
2022/03/02 01:14:12;;;;;;;;;;;-3273.00;57.70;;;;;;5127258;27;20145;-89
2022/03/02 01:16:38;;;;;;;88.33;30.63;;;-3273.00;57.90;;;;;;5109327;28;19908;-89
2022/03/02 01:19:03;;;;;;;;;;;-3273.00;57.70;;;;;;5127099;27;20024;-88
2022/03/02 01:21:29;;;;;;;96.93;32.37;;;-3273.00;57.90;;;;;;5110839;28;19947;-88
2022/03/02 01:23:56;;;;;;;103.80;33.10;;;-3273.00;57.80;;;;;;5131954;27;20084;-88
2022/03/02 01:26:24;;;;;;;114.37;38.33;;;-3273.00;58.00;;;;;;5121610;27;20035;-88
2022/03/02 01:28:50;;;;;;;138.33;39.27;;;-3272.90;58.20;;;;;;5103588;28;20499;-88
2022/03/02 01:31:16;;;;;;;112.27;38.77;;;-3272.90;58.40;;;;;;5091319;28;20059;-89
2022/03/02 01:33:41;;;;;;;;;;;-3272.90;58.60;;;;;;5137736;27;20035;-88
2022/03/02 01:36:07;;;;;;;114.30;38.10;;;-3272.90;58.80;;;;;;5129750;28;19916;-89
2022/03/02 01:38:33;;;;;;;120.93;40.20;;;-3272.90;58.50;;;;;;5139113;27;20080;-88
2022/03/02 01:40:58;;;;;;;;;;;-3272.90;58.60;;;;;;5137725;28;20065;-87
2022/03/02 01:43:27;;;;;;;106.83;34.33;;;-3273.00;58.70;;;;;;5126493;28;19911;-87
2022/03/02 01:45:53;;;;;;;123.37;36.37;;;-3273.00;58.50;;;;;;5149586;27;20032;-88
2022/03/02 01:48:21;;;;;;;;;;;-3273.00;58.60;;;;;;5129540;28;20011;-88
2022/03/02 01:50:47;;;;;;;94.13;29.53;;;-3273.00;58.80;;;;;;5130080;28;19935;-89
2022/03/02 01:53:13;;;;;;;96.83;31.40;;;-3273.00;58.50;;;;;;5110539;28;20039;-89
2022/03/02 01:55:39;;;;;;;;;;;-3273.00;58.70;;;;;;5132838;28;20030;-89
2022/03/02 01:58:05;;;;;;;98.53;31.73;;;-3273.00;58.90;;;;;;5116951;28;19965;-87
2022/03/02 02:00:31;;;;;;;;;;;-3273.00;58.70;;;;;;5141062;27;20066;-88
2022/03/02 02:02:57;;;;;;;85.90;28.40;;;-3273.00;58.90;;;;;;5117589;28;19908;-88
2022/03/02 02:05:23;;;;;;;97.47;32.73;;;-3273.00;58.80;;;;;;5111296;28;20037;-89
2022/03/02 02:07:49;;;;;;;;;;;-3272.90;59.00;;;;;;5100861;28;20019;-87
2022/03/02 02:10:15;;;;;;;76.93;31.37;;;-3272.90;59.20;;;;;;5114353;28;20260;-88
2022/03/02 02:12:40;;;;;;;;;;;-3272.90;59.10;;;;;;5126168;27;20044;-88
2022/03/02 02:15:09;;;;;;;97.37;30.63;;;-3272.90;59.20;;;;;;5116087;28;20431;-88
2022/03/02 02:17:35;;;;;;;100.27;33.43;;;-3272.90;59.00;;;;;;5101488;28;20060;-88
2022/03/02 02:20:01;;;;;;;97.57;32.60;;;-3272.80;59.20;;;;;;5104160;28;20040;-88
2022/03/02 02:22:26;;;;;;;;;;;-3272.90;59.40;;;;;;5106075;28;20396;-87
2022/03/02 02:24:52;;;;;;;96.87;35.13;;;-3272.90;59.60;;;;;;5100748;28;19908;-89
2022/03/02 02:27:18;;;;;;;99.57;33.55;;;-3273.00;59.30;;;;;;5120167;27;20027;-88
2022/03/02 02:29:44;;;;;;;;;;;-3273.00;59.40;;;;;;5123582;27;20032;-89
2022/03/02 02:32:09;;;;;;;92.47;33.23;;;-3273.00;59.60;;;;;;5107318;28;19911;-89
2022/03/02 02:34:35;;;;;;;;;;;-3273.10;59.30;;;;;;5121373;27;20476;-88
2022/03/02 02:37:05;;;;;;;89.93;30.13;;;-3273.10;59.50;;;;;;5109943;28;19946;-88
2022/03/02 02:39:31;;;;;;;101.07;33.50;;;-3273.10;59.30;;;;;;5112386;28;20020;-88
2022/03/02 02:42:07;;;;;;;;;;;-3273.20;59.40;;;;;;5113004;28;20038;-88
2022/03/02 02:44:34;;;;;;;99.80;35.80;;;-3273.20;59.60;;;;;;5103393;28;20296;-88
2022/03/02 02:47:00;;;;;;;102.23;36.53;;;-3273.30;59.30;;;;;;5103496;28;20051;-87
2022/03/02 02:49:26;;;;;;;106.73;34.47;;;-3273.30;59.40;;;;;;5096315;28;20020;-87
2022/03/02 02:51:53;;;;;;;111.10;39.97;;;-3273.40;59.60;;;;;;5110102;28;20110;-88
2022/03/02 02:54:20;;;;;;;99.67;38.33;;;-3273.50;59.70;;;;;;5112590;28;20480;-88
2022/03/02 02:56:46;;;;;;;121.80;40.83;;;-3273.60;59.90;;;;;;5117253;28;20115;-88
2022/03/02 02:59:11;;;;;;;;;;;-3273.70;60.00;;;;;;5128181;27;20059;-89
2022/03/02 03:01:37;;;;;;;109.90;37.43;;;-3273.80;60.10;;;;;;5110969;28;20017;-89
2022/03/02 03:04:03;;;;;;;114.45;40.63;;;-3273.90;59.70;;;;;;5119474;27;20119;-88
2022/03/02 03:06:29;;;;;;;114.53;38.80;;;-3273.90;59.80;;;;;;5103492;28;20007;-88
2022/03/02 03:08:55;;;;;;;;;;;-3273.90;60.00;;;;;;5120299;27;20016;-88
2022/03/02 03:11:21;;;;;;;124.10;39.20;;;-3273.90;60.20;;;;;;5105376;28;19939;-87
2022/03/02 03:13:46;;;;;;;110.10;38.85;;;-3274.00;59.90;;;;;;5119383;28;20042;-87
2022/03/02 03:16:12;;;;;;;;;;;-3273.90;60.10;;;;;;5118772;27;20024;-88
2022/03/02 03:18:37;;;;;;;107.63;37.00;;;-3273.90;60.30;;;;;;5107411;28;19919;-88
2022/03/02 03:21:03;;;;;;;120.70;41.13;;;-3273.80;60.10;;;;;;5127523;27;20061;-87
2022/03/02 03:23:28;;;;;;;104.13;38.83;;;-3273.80;60.40;;;;;;5126892;27;20027;-88
2022/03/02 03:26:17;;;;;;;;;;;-3273.70;60.60;;;;;;5117813;28;20038;-88
2022/03/02 03:29:15;;;;;;;120.63;38.60;;;-3273.70;60.80;;;;;;5079622;28;19904;-89
2022/03/02 03:31:49;;;;;;;109.20;39.77;;;-3273.70;60.70;;;;;;5042928;28;20199;-88
2022/03/02 03:34:15;;;;;;;;;;;-3273.60;60.80;;;;;;5042485;28;20044;-89
2022/03/02 03:36:41;;;;;;;107.90;38.63;;;-3273.50;61.00;;;;;;5044532;28;20386;-88
2022/03/02 03:39:07;;;;;;;127.87;41.23;;;-3273.50;60.80;;;;;;5044951;28;20037;-87
2022/03/02 03:41:33;;;;;;;126.77;40.53;;;-3273.40;61.00;;;;;;5027734;28;20029;-87
2022/03/02 03:43:59;;;;;;;111.27;39.63;;;-3273.30;61.30;;;;;;5041677;28;20041;-88
2022/03/02 03:46:25;;;;;;;;;;;-3273.30;61.50;;;;;;5025829;28;20136;-88
2022/03/02 03:48:50;;;;;;;112.40;38.20;;;-3273.30;61.60;;;;;;5026160;28;19962;-88
2022/03/02 03:51:16;;;;;;;;;;;-3273.30;61.30;;;;;;5038897;28;20135;-88
2022/03/02 03:53:41;;;;;;;112.27;39.00;;;-3273.20;61.50;;;;;;5028300;28;19932;-88
2022/03/02 03:56:07;;;;;;;;;;;-3273.20;61.30;;;;;;5031500;28;20049;-87
2022/03/02 03:58:32;;;;;;;111.03;37.10;;;-3273.20;61.50;;;;;;5030971;28;19931;-88
2022/03/02 04:00:58;;;;;;;;;;;-3273.20;61.30;;;;;;5064073;28;20037;-88
2022/03/02 04:03:24;;;;;;;105.17;36.37;;;-3273.10;61.40;;;;;;5058484;28;19916;-88
2022/03/02 04:05:50;;;;;;;110.27;38.90;;;-3273.10;61.30;;;;;;5042692;28;20039;-87
2022/03/02 04:08:15;;;;;;;;;;;-3273.00;61.50;;;;;;5045023;28;20044;-88
2022/03/02 04:10:41;;;;;;;100.13;37.10;;;-3273.00;61.70;;;;;;5069500;28;19966;-88
2022/03/02 04:13:07;;;;;;;129.18;41.45;;;-3273.00;61.50;;;;;;5047554;28;20044;-87
2022/03/02 04:15:32;;;;;;;;;;;-3273.00;61.70;;;;;;5042708;28;20056;-87
2022/03/02 04:17:58;;;;;;;109.67;37.53;;;-3273.00;61.80;;;;;;5060171;28;19915;-88
2022/03/02 04:20:23;;;;;;;;;;;-3272.90;61.60;;;;;;5065539;28;20459;-88
2022/03/02 04:22:49;;;;;;;109.70;39.53;;;-3272.90;61.80;;;;;;5116755;28;19908;-89
2022/03/02 04:25:15;;;;;;;;;;;-3272.90;61.60;;;;;;5126769;28;20103;-89
2022/03/02 04:27:41;;;;;;;98.30;36.40;;;-3272.80;61.80;;;;;;5103363;28;19915;-88
2022/03/02 04:30:07;;;;;;;;;;;-3272.80;61.60;;;;;;5102594;28;20357;-88
2022/03/02 04:32:32;;;;;;;102.37;34.87;;;-3272.80;61.80;;;;;;5109024;28;19908;-88
2022/03/02 04:34:58;;;;;;;;;;;-3272.80;61.70;;;;;;5104614;28;20098;-88
2022/03/02 04:37:23;;;;;;;100.53;35.07;;;-3272.70;61.90;;;;;;5112964;28;19915;-89
2022/03/02 04:39:49;;;;;;;;;;;-3272.70;61.70;;;;;;5124474;27;20094;-89
2022/03/02 04:42:14;;;;;;;102.97;34.80;;;-3272.70;61.90;;;;;;5116712;28;20362;-87
2022/03/02 04:44:40;;;;;;;96.53;35.63;;;-3272.70;61.80;;;;;;5137475;27;20051;-88
2022/03/02 04:47:05;;;;;;;;;;;-3272.60;61.90;;;;;;5132091;27;20037;-88
2022/03/02 04:49:31;;;;;;;96.23;35.00;;;-3272.60;62.10;;;;;;5112866;28;19933;-88
2022/03/02 04:51:57;;;;;;;;;;;-3272.60;61.90;;;;;;5128487;27;20028;-88
2022/03/02 04:57:16;;;;;;;108.33;38.97;;;-3272.50;61.90;;;;;;5125635;28;20035;-88
2022/03/02 04:59:42;;;;;;;109.70;38.37;;;-3272.50;62.00;;;;;;5112296;28;20033;-88
2022/03/02 05:02:07;;;;;;;;;;;-3272.50;62.20;;;;;;5143243;27;20000;-88
2022/03/02 05:04:41;;;;;;;100.53;34.57;;;-3272.50;62.40;;;;;;5124974;28;19916;-88
2022/03/02 05:07:08;;;;;;;110.07;38.77;;;-3272.50;62.20;;;;;;5106924;28;20039;-88
2022/03/02 05:09:33;;;;;;;;;;;-3272.50;62.30;;;;;;5141178;27;20012;-88
2022/03/02 05:11:59;;;;;;;90.73;34.37;;;-3272.50;62.40;;;;;;5123900;28;20379;-87
2022/03/02 05:14:24;;;;;;;;;;;-3272.50;62.20;;;;;;5133090;27;20047;-87
2022/03/02 05:16:50;;;;;;;91.50;32.77;;;-3272.50;62.30;;;;;;5111999;28;19907;-87
2022/03/02 05:19:15;;;;;;;;;;;-3272.50;62.20;;;;;;5130310;27;20020;-88
2022/03/02 05:21:41;;;;;;;99.97;32.20;;;-3272.40;62.30;;;;;;5104905;28;20294;-87
2022/03/02 05:24:07;;;;;;;;;;;-3272.40;62.20;;;;;;5127810;27;20050;-86
2022/03/02 05:26:33;;;;;;;91.63;32.97;;;-3272.40;62.40;;;;;;5118460;28;19907;-88
2022/03/02 05:28:59;;;;;;;108.47;36.33;;;-3272.40;62.20;;;;;;5107885;28;20553;-88
2022/03/02 05:31:24;;;;;;;;;;;-3272.40;62.40;;;;;;5131957;27;20028;-88
2022/03/02 05:33:51;;;;;;;87.50;32.37;;;-3272.40;62.60;;;;;;5109155;28;19907;-88
2022/03/02 05:36:17;;;;;;;106.47;37.73;;;-3272.40;62.40;;;;;;5132815;27;20029;-88
2022/03/02 05:38:43;;;;;;;101.63;36.70;;;-3272.40;62.50;;;;;;5107941;28;20073;-87
2022/03/02 05:41:08;;;;;;;;;;;-3272.40;62.70;;;;;;5126704;27;20024;-86
2022/03/02 05:43:34;;;;;;;99.67;35.50;;;-3272.40;62.80;;;;;;5097909;28;19908;-88
2022/03/02 05:46:00;;;;;;;;;;;-3272.40;62.60;;;;;;5126936;27;20032;-87
2022/03/02 05:48:25;;;;;;;110.47;37.70;;;-3272.40;62.70;;;;;;5107418;28;19939;-88
2022/03/02 05:50:51;;;;;;;;;;;-3272.40;62.50;;;;;;5103374;28;20069;-88
2022/03/02 05:53:16;;;;;;;112.83;38.13;;;-3272.40;62.70;;;;;;5099748;28;19915;-88
2022/03/02 05:55:43;;;;;;;;;;;-3272.50;62.50;;;;;;5124810;27;20090;-90
2022/03/02 05:58:08;;;;;;;104.63;38.78;;;-3272.50;62.70;;;;;;5109049;28;19916;-88
2022/03/02 06:00:34;;;;;;;;;;;-3272.50;62.50;;;;;;5130400;27;20036;-89
2022/03/02 06:02:59;;;;;;;102.37;35.93;;;-3272.50;62.70;;;;;;5103204;28;20356;-89
2022/03/02 06:05:25;;;;;;;;;;;-3272.50;62.50;;;;;;5119471;27;20077;-88
2022/03/02 06:07:50;;;;;;;100.27;35.17;;;-3272.50;62.70;;;;;;5110732;28;20344;-88
2022/03/02 06:10:16;;;;;;;;;;;-3272.50;62.50;;;;;;5119403;27;20020;-89
2022/03/02 06:12:42;;;;;;;149.93;46.03;;;-3272.60;62.70;;;;;;5105571;28;19915;-87
2022/03/02 06:15:08;;;;;;;;;;;-3272.60;62.50;;;;;;5126920;27;20031;-88
2022/03/02 06:17:34;;;;;;;122.00;40.97;;;-3272.60;62.70;;;;;;5109813;28;19912;-88
2022/03/02 06:19:59;;;;;;;;;;;-3272.60;62.50;;;;;;5116550;27;20023;-88
2022/03/02 06:22:25;;;;;;;106.67;36.83;;;-3272.60;62.70;;;;;;5102282;28;20039;-88
2022/03/02 06:24:54;;;;;;;114.77;39.53;;;-3272.70;62.60;;;;;;5125542;27;20022;-89
2022/03/02 06:27:21;;;;;;;113.30;37.87;;;-3272.70;62.80;;;;;;5128979;27;20028;-87
2022/03/02 06:29:47;;;;;;;102.57;36.97;;;-3272.70;62.90;;;;;;5121285;27;20447;-88
2022/03/02 06:32:13;;;;;;;;;;;-3272.70;63.10;;;;;;5105371;28;20028;-88
2022/03/02 06:34:39;;;;;;;106.53;37.70;;;-3272.80;63.20;;;;;;5109799;28;19934;-89
2022/03/02 06:37:05;;;;;;;;;;;-3272.90;63.00;;;;;;5123083;27;20031;-89
2022/03/02 06:39:30;;;;;;;105.33;38.83;;;-3272.90;63.10;;;;;;5102696;28;19946;-88
2022/03/02 06:42:05;;;;;;;;;;;-3273.00;62.90;;;;;;5120175;27;20024;-89
2022/03/02 06:44:54;;;;;;;122.57;42.30;;;-3273.10;63.10;;;;;;5104733;28;20277;-88
2022/03/02 06:47:28;;;;;;;123.33;41.03;;;-3273.10;62.90;;;;;;5105306;28;20536;-89
2022/03/02 06:49:54;;;;;;;121.57;44.27;;;-3273.20;63.00;;;;;;5124233;27;20024;-88
2022/03/02 06:52:20;;;;;;;;;;;-3273.30;63.20;;;;;;5102759;28;20088;-88
2022/03/02 06:54:49;;;;;;;129.90;43.47;;;-3273.30;63.30;;;;;;5103459;28;19908;-89
2022/03/02 06:57:18;;;;;;;151.63;48.23;;;-3273.50;63.10;;;;;;5099361;28;20035;-89
2022/03/02 06:59:49;;;;;;;136.50;49.53;;;-3273.50;63.30;;;;;;5100787;28;20070;-86
2022/03/02 07:02:22;;;;;;;139.83;49.60;;;-3273.60;63.50;;;;;;5106858;28;20015;-88
2022/03/02 07:04:51;;;;;;;126.70;47.47;;;-3273.70;63.60;;;;;;5104828;28;20077;-86
2022/03/02 07:07:17;;;;;;;134.73;47.53;;;-3273.80;63.80;;;;;;5102734;28;20027;-87
2022/03/02 07:09:46;;;;;;;131.13;45.20;;;-3273.90;63.90;;;;;;5101845;28;20481;-87
2022/03/02 07:12:12;;;;;;;115.17;44.37;;;-3274.00;64.00;;;;;;5103977;28;20455;-86
2022/03/02 07:14:37;;;;;;;;;;;-3274.00;64.00;;;;;;5106294;28;20048;-87
2022/03/02 07:17:05;;;;;;;115.27;41.87;;;-3274.20;64.10;;;;;;5108830;28;19919;-87
2022/03/02 07:19:31;;;;;;;116.23;44.57;;;-3274.20;63.70;;;;;;5103285;28;20408;-88
2022/03/02 07:22:00;;;;;;;;;;;-3274.30;63.80;;;;;;5104008;28;20026;-87
2022/03/02 07:24:31;;;;;;;94.10;36.00;;;-3274.50;63.90;;;;;;5105368;28;19908;-87
2022/03/02 07:26:58;;;;;;;95.00;32.63;;;-3274.70;63.60;;;;;;5107000;28;20048;-87
2022/03/02 07:29:24;;;;;;;;;;;-3274.80;63.70;;;;;;5097066;28;20056;-88
2022/03/02 07:31:53;;;;;;;88.15;32.63;;;-3275.00;63.60;;;;;;5106183;28;19911;-86
2022/03/02 07:34:19;;;;;;;101.00;34.13;;;-3275.20;63.30;;;;;;5122910;27;20045;-87
2022/03/02 07:36:44;;;;;;;;;;;-3275.30;63.30;;;;;;5125620;27;20392;-86
2022/03/02 07:39:11;;;;;;;90.43;34.87;;;-3275.50;63.30;;;;;;5100789;28;19908;-87
2022/03/02 07:41:36;;;;;;;86.40;33.67;;;-3275.70;63.10;;;;;;5099788;28;20495;-87
2022/03/02 07:44:03;;;;;;;;;;;-3275.80;63.10;;;;;;5118362;27;20016;-87
2022/03/02 07:46:29;;;;;;;96.33;32.60;;;-3276.00;63.20;;;;;;5100537;28;19915;-87
2022/03/02 07:48:55;;;;;;;;;;;-3276.20;62.80;;;;;;5126056;27;20384;-87
2022/03/02 07:51:22;;;;;;;108.73;35.53;;;-3276.30;62.80;;;;;;5103155;28;19932;-87
2022/03/02 07:53:49;;;;;;;98.23;36.43;;;-3276.40;62.50;;;;;;5098635;28;20111;-88
2022/03/02 07:56:17;;;;;;;84.80;33.83;;;-3276.50;62.60;;;;;;5124383;27;20444;-87
2022/03/02 07:58:43;;;;;;;98.33;37.10;;;-3276.70;62.70;;;;;;5110302;28;20031;-88
2022/03/02 08:01:13;;;;;;;99.93;39.03;;;0.00;62.60;;;;;;5112872;28;20030;-87
2022/03/02 08:03:39;;;;;;;103.60;37.23;;;0.00;62.60;;;;;;5103994;28;20020;-87
2022/03/02 08:06:06;;;;;;;101.32;36.15;;;0.20;62.50;;;;;;5097675;28;20042;-88
2022/03/02 08:08:32;;;;;;;92.57;36.43;;;0.30;62.40;;;;;;5105119;28;20072;-87
2022/03/02 08:10:58;;;;;;;93.75;36.30;;;0.50;62.30;;;;;;5110757;28;20039;-87
2022/03/02 08:13:25;;;;;;;96.00;39.40;;;0.70;62.10;;;;;;5100283;28;20122;-87
2022/03/02 08:15:51;;;;;;;96.35;36.08;;;0.80;61.90;;;;;;5098199;28;20408;-88
2022/03/02 08:18:17;;;;;;;;;;;0.90;61.70;;;;;;5114477;28;20016;-87
2022/03/02 08:20:50;;;;;;;104.40;32.10;;;1.10;61.60;;;;;;5106893;28;19911;-88
2022/03/02 08:23:19;;;;;;;89.27;33.73;;;1.30;61.10;;;;;;5107913;28;20045;-88
2022/03/02 08:25:52;;;;;;;84.80;32.93;;;1.30;61.00;;;;;;5095253;28;20058;-88
2022/03/02 08:28:20;;;;;;;85.50;33.20;;;1.40;60.90;;;;;;5117644;28;20543;-87
2022/03/02 08:30:49;;;;;;;82.77;30.70;;;1.50;60.70;;;;;;5113198;28;20024;-89
2022/03/02 08:33:29;;;;;;;82.80;32.40;;;1.60;60.50;;;;;;5123341;28;20024;-88
2022/03/02 08:35:56;;;;;;;89.03;32.33;;;1.80;60.30;;;;;;5116703;28;20020;-87
2022/03/02 08:38:22;;;;;;;81.20;31.70;;;1.90;60.10;;;;;;5121633;28;20008;-87
2022/03/02 08:40:48;;;;;;;77.83;30.27;;;2.00;59.90;;;;;;5125988;28;20027;-87
2022/03/02 08:43:15;;;;;;;73.97;29.02;;;2.10;59.70;;;;;;5147770;27;20020;-88
2022/03/02 08:45:47;;;;;;;71.17;27.00;;;2.20;59.60;;;;;;5127837;28;20042;-86
2022/03/02 08:48:17;;;;;;;77.03;31.50;;;2.30;59.40;;;;;;5123187;28;20016;-88
2022/03/02 08:50:43;;;;;;;76.50;30.53;;;2.40;59.20;;;;;;5105776;28;20050;-88
2022/03/02 08:53:13;;;;;;;67.20;25.93;;;2.60;59.00;;;;;;5102047;28;20541;-88
2022/03/02 08:55:40;;;;;;;56.77;24.93;;;2.70;58.90;;;;;;5112383;28;20498;-88
2022/03/02 08:58:05;;;;;;;57.33;24.67;;;2.80;58.70;;;;;;5105422;28;20491;-88
2022/03/02 09:00:32;;;;;;;65.82;27.90;;;2.90;58.40;;;;;;5106035;28;20020;-88
2022/03/02 09:03:01;;;;;;;64.73;26.53;;;3.00;58.20;;;;;;5098383;28;20496;-88
2022/03/02 09:05:28;;;;;;;78.10;29.87;;;3.10;57.90;;;;;;5097920;28;20392;-89
2022/03/02 09:07:54;;;;;;;71.43;26.60;;;3.30;57.70;;;;;;5108040;28;20103;-89
2022/03/02 09:10:20;;;;;;;51.80;19.20;;;3.40;57.50;;;;;;5108328;28;20024;-88
2022/03/02 09:12:46;;;;;;;15.23;8.27;;;3.60;57.30;;;;;;5122850;28;20092;-88
2022/03/02 09:15:11;;;;;;;;;;;3.70;56.70;;;;;;5105055;28;20044;-90
2022/03/02 09:17:37;;;;;;;12.93;5.90;;;3.80;56.40;;;;;;5110622;28;19918;-89
2022/03/02 09:20:04;;;;;;;;;;;3.90;55.60;;;;;;5108285;28;20049;-88
2022/03/02 09:22:30;;;;;;;12.88;4.68;;;4.10;55.40;;;;;;5108276;28;19990;-86
2022/03/02 09:24:57;;;;;;;13.75;5.63;;;4.20;54.90;;;;;;5122167;27;20113;-88
2022/03/02 09:27:27;;;;;;;12.77;5.97;;;4.30;54.50;;;;;;5107700;28;20020;-88
2022/03/02 09:29:56;;;;;;;15.57;6.23;;;4.30;53.40;;;;;;5106548;28;20035;-87
2022/03/02 09:32:23;;;;;;;14.07;5.70;;;4.40;52.70;;;;;;5100351;28;20076;-88
2022/03/02 09:34:53;;;;;;;12.43;6.67;;;4.40;52.40;;;;;;5104519;28;20039;-88
2022/03/02 09:37:22;;;;;;;15.20;6.53;;;4.50;52.30;;;;;;5100884;28;20047;-88
2022/03/02 09:39:49;;;;;;;18.57;6.73;;;4.60;52.10;;;;;;5106250;28;20404;-88
2022/03/02 09:42:24;;;;;;;15.07;6.43;;;4.70;51.70;;;;;;5109771;28;20028;-88
2022/03/02 09:44:59;;;;;;;16.93;7.10;;;4.80;51.30;;;;;;5109265;28;20027;-88
2022/03/02 09:47:30;;;;;;;16.87;7.00;;;4.90;50.90;;;;;;5105819;28;20404;-89
2022/03/02 09:49:57;;;;;;;16.37;7.33;;;5.10;50.60;;;;;;5102133;28;20111;-89
2022/03/02 09:52:23;;;;;;;11.30;6.27;;;5.40;50.10;;;;;;5112553;28;20024;-87
2022/03/02 09:54:56;;;;;;;;;;;5.50;49.40;;;;;;5102052;28;20024;-88
2022/03/02 09:57:23;;;;;;;13.97;6.80;;;5.70;49.20;;;;;;5108205;28;20409;-88
2022/03/02 09:59:54;;;;;;;12.73;6.07;;;5.80;48.80;;;;;;5105538;28;20464;-88
2022/03/02 10:02:43;;;;;;;18.33;7.07;;;5.80;48.50;;;;;;5104832;28;20020;-88
2022/03/02 10:05:11;;;;;;;19.47;6.97;;;5.90;48.10;;;;;;5106101;28;20016;-87
2022/03/02 10:07:44;;;;;;;15.97;7.60;;;6.00;48.00;;;;;;5111848;28;20024;-88
2022/03/02 10:10:12;;;;;;;18.03;7.30;;;6.10;47.80;;;;;;5131687;27;20103;-88
2022/03/02 10:12:39;;;;;;;16.40;8.07;;;6.10;47.60;;;;;;5112908;28;20051;-88
2022/03/02 10:15:11;;;;;;;16.37;7.33;;;6.10;47.40;;;;;;5108669;28;20019;-88
2022/03/02 10:17:39;;;;;;;14.63;6.27;;;6.20;47.10;;;;;;5109870;28;20476;-88
2022/03/02 10:20:06;;;;;;;20.37;7.07;;;6.30;46.90;;;;;;5108211;28;20114;-87
2022/03/02 10:22:59;;;;;;;16.27;6.63;;;6.60;46.40;;;;;;5114407;28;20027;-88
2022/03/02 10:25:51;;;;;;;19.13;6.60;;;7.50;44.80;;;;;;5107584;28;20023;-88
2022/03/02 10:28:26;;;;;;;13.33;7.00;;;9.00;42.50;;;;;;5096253;28;20115;-89
2022/03/02 10:31:13;;;;;;;18.80;7.50;;;10.60;40.20;;;;;;5116734;28;20058;-88
2022/03/02 10:33:46;;;;;;;15.15;7.78;;;12.10;38.30;;;;;;5103925;28;20039;-88
2022/03/02 10:36:12;;;;;;;18.30;7.90;;;13.40;37.00;;;;;;5107606;28;20020;-88
2022/03/02 10:38:40;;;;;;;;;;;14.60;36.00;;;;;;5102168;28;20024;-88
2022/03/02 10:41:09;;;;;;;13.95;7.28;;;15.70;35.70;;;;;;5112148;28;19928;-88
2022/03/02 10:43:51;;;;;;;14.38;7.68;;;16.80;33.60;;;;;;5110161;28;20027;-88
2022/03/02 10:46:22;;;;;;;16.17;8.32;;;17.80;31.90;;;;;;5098806;28;20019;-88
2022/03/02 10:49:10;;;;;;;13.75;7.50;;;18.80;30.90;;;;;;5101030;28;20040;-87
2022/03/02 10:51:39;;;;;;;14.05;7.68;;;19.60;29.30;;;;;;5114179;28;20541;-88
2022/03/02 10:54:06;;;;;;;13.20;8.40;;;20.30;28.90;;;;;;5103565;28;20164;-88
2022/03/02 10:56:39;;;;;;;13.60;8.27;;;20.80;27.80;;;;;;5101976;28;20114;-87
2022/03/02 10:59:11;;;;;;;14.48;7.80;;;21.60;26.20;;;;;;5107438;28;20046;-84
2022/03/02 11:01:39;;;;;;;12.98;7.35;;;22.30;25.60;;;;;;5100872;28;20023;-87
2022/03/02 11:04:08;;;;;;;12.27;7.70;;;22.90;24.90;;;;;;5127776;27;20043;-88
2022/03/02 11:06:35;;;;;;;11.40;6.75;;;23.50;24.00;;;;;;5118032;27;20449;-88
2022/03/02 11:09:02;;;;;;;10.68;6.45;;;23.90;23.20;;;;;;5104125;28;20016;-87
2022/03/02 11:11:32;;;;;;;11.98;6.43;;;23.80;22.40;;;;;;5107422;28;20076;-88
2022/03/02 11:13:58;;;;;;;9.93;6.43;;;23.70;22.00;;;;;;5103792;28;20028;-88
2022/03/02 11:16:25;;;;;;;13.73;7.35;;;23.80;22.00;;;;;;5104509;28;20350;-88
2022/03/02 11:18:55;;;;;;;14.73;7.57;;;24.10;21.80;;;;;;5100575;28;20020;-88
2022/03/02 11:21:29;;;;;;;11.90;6.78;;;24.10;21.50;;;;;;5096519;28;20027;-88
2022/03/02 11:23:57;;;;;;;11.45;7.10;;;23.90;20.90;;;;;;5099892;28;20027;-88
2022/03/02 11:26:29;;;;;;;10.30;6.97;;;23.80;21.10;;;;;;5103654;28;20024;-88
2022/03/02 11:29:06;;;;;;;11.35;7.22;;;23.70;21.00;;;;;;5106357;28;20024;-88
2022/03/02 11:31:46;;;;;;;13.95;8.05;;;23.80;20.50;;;;;;5097453;28;20138;-88
2022/03/02 11:34:22;;;;;;;12.98;7.47;;;24.20;20.20;;;;;;5113596;28;20030;-87
2022/03/02 11:36:51;;;;;;;10.32;7.03;;;24.30;20.10;;;;;;5104748;28;20027;-86
2022/03/02 11:39:20;;;;;;;12.82;7.43;;;24.50;19.70;;;;;;5105155;28;20028;-88
2022/03/02 11:41:51;;;;;;;13.10;7.85;;;24.70;19.50;;;;;;5099522;28;20388;-88
2022/03/02 11:44:33;;;;;;;12.45;7.07;;;25.10;19.10;;;;;;5103275;28;20020;-87
2022/03/02 11:47:02;;;;;;;12.05;7.22;;;25.50;18.60;;;;;;5101004;28;20023;-87
2022/03/02 11:49:42;;;;;;;11.27;7.18;;;25.70;18.90;;;;;;5103917;28;20112;-88
2022/03/02 11:52:10;;;;;;;10.77;6.78;;;25.90;18.30;;;;;;5101578;28;20081;-88
2022/03/02 11:54:47;;;;;;;11.35;6.95;;;26.10;18.50;;;;;;5102723;28;20027;-87
2022/03/02 11:57:15;;;;;;;9.95;6.80;;;26.60;18.00;;;;;;5106002;28;20006;-87
2022/03/02 11:59:42;;;;;;;10.25;6.60;;;27.10;17.60;;;;;;5103505;28;20125;-87
2022/03/02 12:02:21;;;;;;;10.27;6.50;;;27.60;17.50;;;;;;5101081;28;20032;-87
2022/03/02 12:05:02;;;;;;;17.23;7.50;;;27.90;16.90;;;;;;5113568;28;20071;-87
2022/03/02 12:07:44;;;;;;;12.65;6.43;;;28.10;16.70;;;;;;5124490;28;20538;-87
2022/03/02 12:10:21;;;;;;;8.75;6.38;;;28.40;16.50;;;;;;5126922;28;20008;-87
2022/03/02 12:12:47;;;;;;;9.18;6.15;;;28.70;16.00;;;;;;5122984;28;20039;-87
2022/03/02 12:15:13;;;;;;;10.57;6.43;;;28.70;16.00;;;;;;5126959;28;20020;-87
2022/03/02 12:17:39;;;;;;;8.95;5.82;;;28.50;15.70;;;;;;5123329;28;20055;-87
2022/03/02 12:20:18;;;;;;;10.98;6.75;;;28.50;15.70;;;;;;5132333;28;20039;-87
2022/03/02 12:22:55;;;;;;;9.75;6.32;;;28.40;15.50;;;;;;5131868;28;20087;-88
2022/03/02 12:25:23;;;;;;;10.05;5.75;;;28.60;15.20;;;;;;5112225;28;20020;-87
2022/03/02 12:28:04;;;;;;;11.52;7.65;;;28.70;15.20;;;;;;5107516;28;20027;-86
2022/03/02 12:30:35;;;;;;;9.63;6.90;;;29.20;14.90;;;;;;5098789;28;20023;-88
2022/03/02 12:33:02;;;;;;;9.73;5.93;;;29.30;14.90;;;;;;5099501;28;20498;-87
2022/03/02 12:35:28;;;;;;;9.98;6.47;;;29.60;15.00;;;;;;5104957;28;20417;-87
2022/03/02 12:38:00;;;;;;;9.57;6.22;;;29.80;14.90;;;;;;5097779;28;20022;-87
2022/03/02 12:40:29;;;;;;;9.75;6.20;;;30.00;14.50;;;;;;5111313;28;20023;-87